Time;durP1;ratioP1;P1;durP2;ratioP2;P2;SDS_P1;SDS_P2;PMS_P1;PMS_P2;Temp;Humidity;BMP_temperature;BMP_pressure;BME280_temperature;BME280_humidity;BME280_pressure;Samples;Min_cycle;Max_cycle;Signal;HPM_P1;HPM_P2
2022/03/19 05:02:14;;;;;;;54.13;43.50;;;5.50;99.90;;;;;;5190218;23;20480;-61
2022/03/19 05:04:41;;;;;;;51.20;43.70;;;5.50;99.90;;;;;;5036849;28;20476;-62
2022/03/19 05:07:08;;;;;;;56.63;46.97;;;5.50;99.90;;;;;;5039188;28;20465;-61
2022/03/19 05:12:29;;;;;;;54.40;45.10;;;5.50;99.90;;;;;;5038780;28;20475;-61
2022/03/19 05:14:56;;;;;;;52.90;43.10;;;5.60;99.90;;;;;;5038773;28;20444;-60
2022/03/19 05:17:24;;;;;;;55.30;45.80;;;5.60;99.90;;;;;;5038742;28;20836;-60
2022/03/19 05:19:51;;;;;;;57.23;45.93;;;5.50;99.90;;;;;;5038842;28;20441;-60
2022/03/19 05:22:18;;;;;;;61.13;45.03;;;5.60;99.90;;;;;;5029989;28;20473;-61
2022/03/19 05:24:45;;;;;;;57.30;46.07;;;5.50;99.90;;;;;;5025120;28;20484;-60
2022/03/19 05:27:12;;;;;;;57.97;44.33;;;5.50;99.90;;;;;;5022956;28;20475;-60
2022/03/19 05:29:39;;;;;;;54.97;44.60;;;5.50;99.90;;;;;;5019645;28;20473;-61
2022/03/19 05:32:07;;;;;;;55.43;44.33;;;5.50;99.90;;;;;;5020053;28;20473;-61
2022/03/19 05:34:35;;;;;;;53.07;44.17;;;5.50;99.90;;;;;;5019927;28;20449;-61
2022/03/19 05:37:04;;;;;;;55.63;44.27;;;5.50;99.90;;;;;;5018943;28;20460;-61
2022/03/19 05:39:32;;;;;;;55.17;44.67;;;5.50;99.90;;;;;;5018322;28;20503;-60
2022/03/19 05:41:59;;;;;;;56.87;44.83;;;5.50;99.90;;;;;;5018432;28;20483;-61
2022/03/19 05:44:26;;;;;;;57.60;46.50;;;5.50;99.90;;;;;;5023825;28;20461;-61
2022/03/19 05:46:53;;;;;;;56.00;44.50;;;5.50;99.90;;;;;;5025315;28;20464;-60
2022/03/19 05:49:19;;;;;;;49.90;44.27;;;5.50;99.90;;;;;;5019953;28;20461;-61
2022/03/19 05:51:47;;;;;;;55.27;45.73;;;5.50;99.90;;;;;;5018400;28;20501;-61
2022/03/19 05:54:14;;;;;;;55.43;46.37;;;5.50;99.90;;;;;;5019797;28;20453;-61
2022/03/19 05:56:41;;;;;;;56.80;44.37;;;5.60;99.90;;;;;;5029250;28;20803;-62
2022/03/19 05:59:07;;;;;;;53.47;44.80;;;5.60;99.90;;;;;;5020455;28;20460;-61
2022/03/19 06:01:35;;;;;;;60.00;44.53;;;5.70;99.90;;;;;;5019555;28;20480;-61
2022/03/19 06:04:02;;;;;;;57.60;45.90;;;5.70;99.90;;;;;;5023763;28;20797;-61
2022/03/19 06:06:30;;;;;;;51.17;42.23;;;5.70;99.90;;;;;;5022781;28;20453;-61
2022/03/19 06:08:58;;;;;;;53.33;43.67;;;5.70;99.90;;;;;;5022619;28;20504;-61
2022/03/19 06:11:25;;;;;;;59.47;44.30;;;5.70;99.90;;;;;;5022179;28;20484;-61
2022/03/19 06:13:52;;;;;;;55.13;43.17;;;5.70;99.90;;;;;;5024553;28;20459;-61
2022/03/19 06:16:19;;;;;;;58.63;45.47;;;5.70;99.90;;;;;;5025354;28;20457;-62
2022/03/19 06:18:50;;;;;;;52.80;43.70;;;5.80;99.90;;;;;;5023459;28;20457;-61
2022/03/19 06:21:17;;;;;;;50.63;43.20;;;5.80;99.90;;;;;;5018590;28;20477;-61
2022/03/19 06:23:45;;;;;;;55.20;44.47;;;5.90;99.90;;;;;;5028734;28;20516;-61
2022/03/19 06:26:13;;;;;;;60.40;44.57;;;5.90;99.90;;;;;;5031280;28;20480;-61
2022/03/19 06:28:40;;;;;;;54.00;41.80;;;5.90;99.90;;;;;;5025310;28;20449;-62
2022/03/19 06:31:07;;;;;;;54.20;42.93;;;6.00;99.90;;;;;;5022282;28;20492;-61
2022/03/19 06:33:34;;;;;;;50.87;43.20;;;6.00;99.90;;;;;;5024742;28;20459;-62
2022/03/19 06:38:45;;;;;;;49.67;38.93;;;6.50;99.90;;;;;;5020744;28;20955;-61
2022/03/19 06:41:15;;;;;;;50.03;38.40;;;6.90;99.90;;;;;;5017681;28;20473;-61
2022/03/19 06:43:43;;;;;;;48.40;39.20;;;7.20;99.90;;;;;;5020980;28;20453;-61
2022/03/19 06:46:10;;;;;;;45.90;40.03;;;7.60;99.90;;;;;;5020817;28;20524;-61
2022/03/19 06:48:37;;;;;;;48.87;37.73;;;8.00;99.90;;;;;;5020633;28;20453;-62
2022/03/19 06:51:04;;;;;;;46.97;37.30;;;8.40;99.90;;;;;;5026410;28;20476;-61
2022/03/19 06:53:31;;;;;;;46.57;38.53;;;8.90;99.90;;;;;;5037954;28;20457;-62
2022/03/19 06:55:57;;;;;;;46.47;37.03;;;9.10;99.90;;;;;;5038406;28;20459;-61
2022/03/19 06:58:25;;;;;;;47.87;39.80;;;9.30;99.90;;;;;;5038828;28;20453;-61
2022/03/19 07:00:52;;;;;;;45.90;37.80;;;9.40;99.90;;;;;;5037974;28;20484;-61
2022/03/19 07:03:19;;;;;;;44.33;38.57;;;9.60;99.90;;;;;;5034287;28;20515;-62
2022/03/19 07:05:46;;;;;;;43.30;37.83;;;9.80;99.90;;;;;;5022551;28;20449;-61
2022/03/19 07:08:12;;;;;;;49.57;37.53;;;10.10;99.90;;;;;;5023590;28;20464;-61
2022/03/19 07:10:39;;;;;;;46.80;38.47;;;10.30;99.90;;;;;;5023970;28;20491;-61
2022/03/19 07:13:06;;;;;;;43.87;38.97;;;10.60;99.90;;;;;;5023459;28;20476;-61
2022/03/19 07:15:34;;;;;;;43.80;37.37;;;10.70;99.90;;;;;;5020454;28;20552;-61
2022/03/19 07:18:03;;;;;;;44.20;36.77;;;10.80;99.90;;;;;;5019784;28;20457;-60
2022/03/19 07:20:31;;;;;;;44.77;36.67;;;11.20;99.90;;;;;;5019167;28;20883;-60
2022/03/19 07:23:00;;;;;;;44.13;37.80;;;11.60;99.90;;;;;;5019228;28;20868;-62
2022/03/19 07:25:29;;;;;;;45.40;39.00;;;12.10;99.90;;;;;;5020166;28;21004;-62
2022/03/19 07:27:57;;;;;;;43.53;38.53;;;11.90;99.90;;;;;;5019498;28;20461;-60
2022/03/19 07:30:24;;;;;;;42.43;37.67;;;12.20;99.90;;;;;;5018798;28;20473;-61
2022/03/19 07:32:52;;;;;;;43.27;38.10;;;12.40;99.90;;;;;;5018870;28;20453;-60
2022/03/19 07:35:19;;;;;;;42.43;37.70;;;12.70;98.10;;;;;;5019342;28;20453;-61
2022/03/19 07:37:46;;;;;;;42.23;37.73;;;13.10;97.60;;;;;;5019490;28;20457;-61
2022/03/19 07:40:15;;;;;;;39.17;35.00;;;13.40;96.30;;;;;;5019245;28;20457;-62
2022/03/19 07:42:41;;;;;;;40.20;35.90;;;13.70;95.00;;;;;;5019156;28;20452;-61
2022/03/19 07:45:09;;;;;;;38.60;34.60;;;13.80;93.80;;;;;;5020330;28;20461;-61
2022/03/19 07:47:36;;;;;;;42.17;34.73;;;14.00;92.30;;;;;;5019996;28;20453;-62
2022/03/19 07:50:05;;;;;;;37.90;33.80;;;13.90;92.00;;;;;;5018598;28;20852;-61
2022/03/19 07:52:33;;;;;;;37.93;34.13;;;14.40;92.00;;;;;;5020161;28;20984;-60
2022/03/19 07:55:00;;;;;;;40.13;34.07;;;14.90;90.90;;;;;;5019067;28;20492;-62
2022/03/19 07:57:26;;;;;;;39.30;35.10;;;15.30;88.00;;;;;;5019173;28;20457;-62
2022/03/19 07:59:54;;;;;;;38.03;33.50;;;15.50;85.40;;;;;;5018440;28;20453;-63
2022/03/19 08:02:22;;;;;;;40.03;35.90;;;16.00;84.40;;;;;;5019361;28;20481;-62
2022/03/19 08:04:48;;;;;;;37.93;34.13;;;16.50;80.40;;;;;;5020583;28;20496;-61
2022/03/19 08:07:19;;;;;;;34.97;31.30;;;16.30;76.80;;;;;;5018579;28;20452;-61
2022/03/19 08:09:46;;;;;;;36.10;32.40;;;16.00;76.30;;;;;;5019321;28;20464;-61
2022/03/19 08:12:13;;;;;;;36.27;32.53;;;16.10;75.40;;;;;;5018174;28;20540;-61
2022/03/19 08:14:40;;;;;;;36.50;32.33;;;16.30;74.80;;;;;;5018284;28;20885;-61
2022/03/19 08:17:07;;;;;;;35.73;32.10;;;16.30;75.00;;;;;;5017624;28;20540;-60
2022/03/19 08:19:34;;;;;;;36.10;32.20;;;15.70;73.20;;;;;;5018743;28;20967;-61
2022/03/19 08:22:00;;;;;;;35.33;31.67;;;15.90;74.20;;;;;;5017912;28;20500;-61
2022/03/19 08:24:28;;;;;;;34.70;31.13;;;15.80;71.90;;;;;;5018428;28;20461;-60
2022/03/19 08:26:55;;;;;;;35.87;32.03;;;15.90;73.20;;;;;;5018264;28;20453;-60
2022/03/19 08:29:25;;;;;;;33.27;29.90;;;16.40;73.40;;;;;;5018077;28;20453;-61
2022/03/19 08:31:52;;;;;;;37.57;33.50;;;16.60;72.70;;;;;;5017567;28;20483;-61
2022/03/19 08:34:18;;;;;;;36.50;32.60;;;17.00;68.60;;;;;;5017367;28;20472;-61
2022/03/19 08:36:45;;;;;;;35.27;31.47;;;17.30;68.80;;;;;;5017146;28;20457;-61
2022/03/19 08:41:58;;;;;;;34.23;30.67;;;17.90;66.10;;;;;;5004218;28;20509;-62
2022/03/19 08:44:25;;;;;;;33.87;30.47;;;18.60;64.10;;;;;;5037987;28;20853;-61
2022/03/19 08:46:52;;;;;;;33.80;30.30;;;18.70;61.70;;;;;;5039124;28;20461;-61
2022/03/19 08:49:20;;;;;;;35.20;31.57;;;18.60;62.70;;;;;;5030607;28;20440;-62
2022/03/19 08:51:46;;;;;;;;;;;18.10;60.30;;;;;;5018254;28;20308;-61
2022/03/19 08:54:15;;;;;;;34.07;30.80;;;17.60;61.90;;;;;;5016800;28;20655;-61
2022/03/19 08:56:42;;;;;;;;;;;17.50;62.30;;;;;;5016894;28;20325;-61
2022/03/19 08:59:11;;;;;;;35.50;32.00;;;17.30;63.00;;;;;;5015888;28;20457;-61
2022/03/19 09:01:38;;;;;;;35.10;31.40;;;17.90;63.90;;;;;;5018412;28;20477;-61
2022/03/19 09:04:06;;;;;;;31.33;28.00;;;18.60;61.10;;;;;;5015600;28;20512;-61
2022/03/19 09:06:33;;;;;;;36.00;32.23;;;18.90;67.40;;;;;;5029123;28;20435;-61
2022/03/19 09:09:02;;;;;;;34.27;30.87;;;19.00;59.90;;;;;;5027334;28;20454;-61
2022/03/19 09:11:29;;;;;;;33.75;30.45;;;19.40;59.10;;;;;;5016364;28;20531;-61
2022/03/19 09:13:56;;;;;;;34.57;31.30;;;19.60;57.70;;;;;;5015764;28;20511;-61
2022/03/19 09:16:24;;;;;;;27.10;24.40;;;18.80;57.60;;;;;;5015811;28;20861;-60
2022/03/19 09:18:52;;;;;;;34.35;31.00;;;19.20;70.20;;;;;;5016664;28;20497;-61
2022/03/19 09:21:19;;;;;;;34.97;31.53;;;19.30;61.50;;;;;;5016877;28;20482;-61
2022/03/19 09:23:47;;;;;;;35.33;31.73;;;19.90;62.60;;;;;;5016094;28;20461;-61
2022/03/19 09:26:14;;;;;;;36.27;32.60;;;20.00;62.00;;;;;;5016402;28;20523;-62
2022/03/19 09:28:41;;;;;;;35.63;32.33;;;19.60;59.80;;;;;;5015783;28;20461;-62
2022/03/19 09:31:08;;;;;;;35.40;32.00;;;19.30;56.50;;;;;;5015818;28;20481;-62
2022/03/19 09:33:36;;;;;;;34.27;30.97;;;19.10;57.50;;;;;;5015718;28;20529;-61
2022/03/19 09:36:03;;;;;;;36.70;32.73;;;19.30;57.00;;;;;;5016030;28;20453;-61
2022/03/19 09:38:31;;;;;;;34.80;31.47;;;19.60;56.60;;;;;;5022082;28;20461;-61
2022/03/19 09:40:59;;;;;;;35.90;32.50;;;19.80;55.30;;;;;;5028580;28;20469;-61
2022/03/19 09:43:26;;;;;;;37.23;33.53;;;20.00;56.80;;;;;;5016376;28;20496;-62
2022/03/19 09:45:54;;;;;;;36.43;32.73;;;19.50;56.10;;;;;;5015236;28;20456;-62
2022/03/19 09:48:21;;;;;;;38.23;34.33;;;19.30;56.30;;;;;;5018289;28;20480;-62
2022/03/19 09:50:51;;;;;;;38.53;34.70;;;19.40;56.40;;;;;;5017299;28;20481;-61
2022/03/19 09:53:20;;;;;;;38.63;34.80;;;19.80;55.60;;;;;;5015649;28;20437;-62
2022/03/19 09:55:47;;;;;;;37.87;34.37;;;20.10;56.40;;;;;;5015245;28;20469;-62
2022/03/19 09:58:15;;;;;;;35.40;31.90;;;20.10;56.30;;;;;;5015198;28;20453;-61
2022/03/19 10:00:43;;;;;;;36.63;33.07;;;20.50;54.30;;;;;;5014638;28;20600;-61
2022/03/19 10:03:12;;;;;;;36.53;33.13;;;20.30;54.20;;;;;;5015093;28;20456;-61
2022/03/19 10:08:39;;;;;;;36.60;32.90;;;21.30;54.30;;;;;;5015307;28;20427;-62
2022/03/19 10:11:08;;;;;;;37.57;34.00;;;22.00;53.80;;;;;;5014604;28;20503;-62
2022/03/19 10:13:38;;;;;;;38.60;35.00;;;21.70;53.40;;;;;;5014552;28;20454;-61
2022/03/19 10:16:05;;;;;;;37.70;34.13;;;21.70;52.10;;;;;;5014413;28;20477;-61
2022/03/19 10:18:32;;;;;;;37.13;33.43;;;21.60;52.30;;;;;;5014969;28;20484;-61
2022/03/19 10:21:02;;;;;;;37.80;34.03;;;21.40;51.80;;;;;;5014931;28;20872;-61
2022/03/19 10:23:34;;;;;;;38.60;34.60;;;21.20;51.40;;;;;;5015325;28;20488;-61
2022/03/19 10:26:01;;;;;;;37.47;33.47;;;20.50;51.50;;;;;;5015261;28;20457;-61
2022/03/19 10:28:32;;;;;;;36.57;32.83;;;20.20;51.90;;;;;;5016920;28;20461;-61
2022/03/19 10:30:59;;;;;;;34.77;31.37;;;20.40;52.50;;;;;;5016894;28;20485;-61
2022/03/19 10:33:28;;;;;;;36.47;32.73;;;20.90;53.10;;;;;;5015565;28;20457;-61
2022/03/19 10:36:06;;;;;;;37.50;33.77;;;21.10;53.10;;;;;;5015485;28;20549;-61
2022/03/19 10:38:43;;;;;;;33.17;29.83;;;21.20;51.80;;;;;;5016097;28;20500;-62
2022/03/19 10:41:11;;;;;;;33.37;29.90;;;21.50;51.50;;;;;;5016238;28;20473;-61
2022/03/19 10:43:38;;;;;;;34.67;31.07;;;21.30;51.00;;;;;;5016009;28;20511;-62
2022/03/19 10:46:05;;;;;;;32.87;29.63;;;21.50;51.70;;;;;;5015990;28;20448;-62
2022/03/19 10:48:33;;;;;;;30.87;27.57;;;21.70;51.80;;;;;;5015434;28;20460;-62
2022/03/19 10:51:01;;;;;;;28.37;25.77;;;21.70;51.00;;;;;;5015677;28;20507;-61
2022/03/19 10:53:28;;;;;;;28.70;25.90;;;21.70;50.50;;;;;;5015874;28;20457;-62
2022/03/19 10:55:56;;;;;;;27.13;24.50;;;22.00;51.50;;;;;;5015675;28;20453;-63
2022/03/19 10:58:23;;;;;;;22.20;19.90;;;22.10;49.30;;;;;;5021319;28;20480;-61
2022/03/19 11:00:51;;;;;;;21.57;19.57;;;21.80;46.90;;;;;;5016099;28;20517;-61
2022/03/19 11:03:20;;;;;;;23.47;21.07;;;21.70;46.90;;;;;;5015180;28;20464;-61
2022/03/19 11:05:49;;;;;;;22.23;20.13;;;21.10;47.40;;;;;;5015315;28;20457;-63
2022/03/19 11:08:19;;;;;;;24.00;21.53;;;20.50;48.80;;;;;;5015079;28;20457;-62
2022/03/19 11:10:48;;;;;;;21.70;19.47;;;19.90;48.30;;;;;;5016592;28;20503;-61
2022/03/19 11:13:21;;;;;;;23.17;20.77;;;19.10;50.20;;;;;;5019046;28;20893;-61
2022/03/19 11:15:51;;;;;;;21.13;18.97;;;18.70;51.50;;;;;;5024173;28;20438;-61
2022/03/19 11:18:21;;;;;;;19.50;17.60;;;18.80;51.00;;;;;;5022712;28;20445;-62
2022/03/19 11:20:49;;;;;;;21.50;19.30;;;18.70;50.30;;;;;;5017480;28;20469;-61
2022/03/19 11:23:19;;;;;;;19.47;17.47;;;18.40;50.70;;;;;;5017101;28;20449;-61
2022/03/19 11:25:51;;;;;;;19.40;17.40;;;18.10;53.10;;;;;;5015352;28;20441;-61
2022/03/19 11:28:20;;;;;;;16.80;15.20;;;17.90;52.50;;;;;;5016724;28;20492;-61
2022/03/19 11:31:00;;;;;;;16.70;15.13;;;17.80;52.50;;;;;;5019645;28;20879;-60
2022/03/19 11:33:30;;;;;;;16.37;13.87;;;17.40;52.20;;;;;;5019627;28;20495;-61
2022/03/19 11:36:06;;;;;;;15.83;14.20;;;16.80;51.80;;;;;;5023406;28;20445;-61
2022/03/19 11:38:35;;;;;;;15.83;14.23;;;16.20;54.20;;;;;;5022354;28;20436;-61
2022/03/19 11:41:18;;;;;;;15.00;13.30;;;15.70;52.60;;;;;;5018394;28;20504;-62
2022/03/19 11:43:46;;;;;;;14.47;13.00;;;15.10;53.50;;;;;;5018445;28;20474;-60
2022/03/19 11:46:13;;;;;;;15.33;13.57;;;14.80;54.50;;;;;;5018149;28;20522;-61
2022/03/19 11:48:42;;;;;;;15.00;13.13;;;14.90;55.90;;;;;;5017759;28;20480;-61
2022/03/19 11:51:29;;;;;;;15.13;13.53;;;15.10;56.30;;;;;;5019667;28;20476;-61
2022/03/19 11:53:57;;;;;;;16.97;15.27;;;15.50;57.40;;;;;;5019609;28;20441;-61
2022/03/19 11:56:26;;;;;;;14.70;12.10;;;16.10;57.90;;;;;;5017868;28;20794;-61
2022/03/19 11:58:54;;;;;;;15.40;13.80;;;16.40;56.20;;;;;;5018159;28;20510;-61
2022/03/19 12:01:49;;;;;;;14.43;13.03;;;16.30;53.00;;;;;;5017933;28;20480;-61
2022/03/19 12:04:17;;;;;;;14.90;13.30;;;16.10;53.40;;;;;;5018493;28;20488;-61
2022/03/19 12:06:54;;;;;;;16.43;14.83;;;15.50;53.10;;;;;;5017359;28;20459;-61
2022/03/19 12:09:30;;;;;;;15.10;13.60;;;14.70;54.60;;;;;;5017138;28;20449;-61
2022/03/19 12:12:08;;;;;;;17.70;14.97;;;14.50;56.10;;;;;;5017454;28;20480;-61
2022/03/19 12:14:36;;;;;;;16.00;13.90;;;14.70;57.70;;;;;;5017780;28;20461;-62
2022/03/19 12:17:19;;;;;;;14.90;12.83;;;15.00;57.60;;;;;;5019403;28;20453;-61
2022/03/19 12:19:54;;;;;;;13.23;11.90;;;15.40;57.70;;;;;;5017082;28;20457;-61
2022/03/19 12:22:33;;;;;;;13.27;11.87;;;15.60;54.20;;;;;;5018035;28;20826;-61
2022/03/19 12:25:21;;;;;;;12.47;11.17;;;15.60;53.80;;;;;;5017275;28;20844;-61
2022/03/19 12:27:51;;;;;;;12.23;11.03;;;15.20;53.40;;;;;;5018381;28;20856;-60
2022/03/19 12:30:21;;;;;;;14.40;10.87;;;14.80;53.30;;;;;;5017386;28;20437;-62
2022/03/19 12:32:54;;;;;;;11.33;10.20;;;14.30;52.30;;;;;;5017854;28;20465;-61
2022/03/19 12:35:21;;;;;;;15.17;11.83;;;13.80;52.80;;;;;;5017383;28;20445;-61
2022/03/19 12:37:50;;;;;;;12.43;11.03;;;13.60;54.20;;;;;;5017655;28;20948;-62
2022/03/19 12:40:21;;;;;;;12.30;10.73;;;13.70;55.50;;;;;;5020083;28;20460;-63
2022/03/19 12:42:57;;;;;;;11.00;9.63;;;14.00;56.90;;;;;;5021003;28;20449;-61
2022/03/19 12:45:38;;;;;;;12.70;10.60;;;14.10;55.00;;;;;;5018335;28;20884;-61
2022/03/19 12:48:12;;;;;;;12.40;10.40;;;14.30;55.60;;;;;;5016360;28;20533;-62
2022/03/19 12:50:41;;;;;;;11.40;10.03;;;14.10;54.50;;;;;;5017058;28;20515;-61
2022/03/19 12:53:08;;;;;;;14.40;9.40;;;14.10;54.60;;;;;;5016193;28;20483;-61
2022/03/19 12:55:35;;;;;;;12.37;8.80;;;13.80;53.80;;;;;;5016689;28;20453;-60
2022/03/19 12:58:02;;;;;;;8.87;8.00;;;13.90;53.90;;;;;;5016651;28;20936;-61
2022/03/19 13:00:29;;;;;;;9.73;8.50;;;14.10;54.30;;;;;;5016551;28;20453;-61
2022/03/19 13:02:57;;;;;;;9.87;8.67;;;14.50;52.40;;;;;;5017046;28;20426;-61
2022/03/19 13:05:24;;;;;;;9.80;7.70;;;15.00;53.10;;;;;;5016195;28;20504;-61
2022/03/19 13:08:07;;;;;;;8.93;8.00;;;15.20;52.70;;;;;;5016409;28;20503;-62
2022/03/19 13:10:46;;;;;;;10.23;8.63;;;15.50;52.90;;;;;;5014126;28;20580;-62
2022/03/19 13:13:13;;;;;;;9.03;8.13;;;15.90;51.20;;;;;;5031816;28;20525;-62
2022/03/19 13:15:48;;;;;;;8.87;8.03;;;16.00;49.40;;;;;;5020636;28;20456;-63
2022/03/19 13:18:26;;;;;;;9.90;8.20;;;15.60;51.70;;;;;;5017474;28;20440;-63
2022/03/19 13:20:58;;;;;;;8.57;7.30;;;15.40;54.10;;;;;;5021675;28;20480;-63
2022/03/19 13:23:26;;;;;;;9.50;7.40;;;15.00;52.60;;;;;;5026919;28;20437;-60
2022/03/19 13:25:53;;;;;;;11.57;7.50;;;14.50;53.10;;;;;;5030588;28;20775;-60
2022/03/19 13:28:20;;;;;;;7.43;6.73;;;14.10;53.00;;;;;;5027397;28;20472;-61
2022/03/19 13:30:49;;;;;;;7.70;6.90;;;13.70;52.70;;;;;;5021694;28;20523;-61
2022/03/19 13:33:18;;;;;;;8.23;6.87;;;13.50;53.40;;;;;;5018932;28;20477;-61
2022/03/19 13:35:47;;;;;;;6.53;5.73;;;13.50;53.90;;;;;;5017772;28;20462;-60
2022/03/19 13:38:15;;;;;;;6.67;5.97;;;13.70;52.30;;;;;;5017828;28;20479;-62
2022/03/19 13:40:43;;;;;;;6.80;5.80;;;14.20;57.90;;;;;;5017495;28;20480;-62
2022/03/19 13:43:09;;;;;;;9.13;6.77;;;14.70;56.60;;;;;;5018075;28;20449;-62
2022/03/19 13:45:36;;;;;;;6.90;5.53;;;15.10;55.60;;;;;;5016160;28;20817;-62
2022/03/19 13:48:05;;;;;;;5.80;5.30;;;15.50;57.30;;;;;;5016033;28;20453;-62
2022/03/19 13:50:36;;;;;;;5.43;4.93;;;15.90;53.10;;;;;;5015581;28;20557;-61
2022/03/19 13:53:05;;;;;;;5.10;4.70;;;16.10;54.30;;;;;;5015460;28;20531;-62
2022/03/19 13:55:37;;;;;;;8.03;4.40;;;16.00;50.20;;;;;;5015834;28;20453;-61
2022/03/19 13:58:05;;;;;;;5.63;5.07;;;15.60;50.30;;;;;;5016014;28;20562;-61
2022/03/19 14:00:33;;;;;;;4.80;4.30;;;15.10;48.10;;;;;;5016093;28;20493;-62
2022/03/19 14:03:03;;;;;;;4.53;4.23;;;14.60;48.60;;;;;;5015866;28;20433;-60
2022/03/19 14:05:31;;;;;;;5.53;4.07;;;14.40;48.20;;;;;;5016781;28;20488;-61
2022/03/19 14:08:03;;;;;;;5.13;4.63;;;14.40;47.30;;;;;;5015840;28;20457;-62
2022/03/19 14:10:32;;;;;;;4.60;4.20;;;14.50;47.90;;;;;;5015755;28;20441;-62
2022/03/19 14:13:05;;;;;;;8.25;4.75;;;14.70;47.20;;;;;;5019583;28;20572;-61
2022/03/19 14:15:42;;;;;;;4.87;3.90;;;14.50;47.10;;;;;;5033433;28;20457;-61
2022/03/19 14:18:10;;;;;;;3.80;3.47;;;14.50;47.40;;;;;;5034931;28;20453;-61
2022/03/19 14:20:37;;;;;;;3.27;2.97;;;14.60;44.80;;;;;;5034651;28;20449;-62
2022/03/19 14:23:05;;;;;;;3.80;2.80;;;14.70;41.20;;;;;;5022542;28;20441;-63
2022/03/19 14:25:34;;;;;;;2.60;2.40;;;14.80;41.10;;;;;;5019482;28;20453;-62
2022/03/19 14:28:07;;;;;;;3.40;3.07;;;14.60;41.40;;;;;;5019055;28;20453;-61
2022/03/19 14:30:34;;;;;;;2.97;2.77;;;14.80;41.10;;;;;;5016987;28;20464;-60
2022/03/19 14:33:01;;;;;;;3.03;2.63;;;14.70;40.60;;;;;;5017057;28;20540;-60
2022/03/19 14:35:40;;;;;;;3.40;2.80;;;14.70;39.70;;;;;;5017780;28;20807;-61
2022/03/19 14:38:08;;;;;;;4.00;3.33;;;14.60;40.10;;;;;;5016143;28;20441;-61
2022/03/19 14:40:35;;;;;;;4.20;3.10;;;14.40;43.10;;;;;;5016386;28;20487;-61
2022/03/19 14:43:02;;;;;;;2.90;2.60;;;14.40;42.60;;;;;;5015539;28;20452;-60
2022/03/19 14:45:29;;;;;;;3.10;2.70;;;14.50;41.30;;;;;;5023924;28;20429;-61
2022/03/19 14:47:56;;;;;;;3.40;3.10;;;14.30;40.60;;;;;;5026919;28;20430;-60
2022/03/19 14:50:23;;;;;;;3.80;3.47;;;14.00;41.70;;;;;;5028834;28;20862;-61
2022/03/19 14:52:50;;;;;;;3.90;3.40;;;14.00;42.50;;;;;;5031248;28;20480;-61
2022/03/19 14:55:18;;;;;;;3.37;3.07;;;14.20;42.80;;;;;;5031595;28;20445;-60
2022/03/19 14:57:45;;;;;;;3.90;3.60;;;14.30;43.10;;;;;;5033150;28;20494;-60
2022/03/19 15:00:13;;;;;;;5.20;3.40;;;14.20;44.30;;;;;;5033577;28;20436;-61
2022/03/19 15:02:40;;;;;;;4.07;3.20;;;14.20;43.10;;;;;;5026521;28;20442;-62
2022/03/19 15:05:07;;;;;;;4.47;3.53;;;14.10;43.10;;;;;;5021893;28;20940;-60
2022/03/19 15:07:34;;;;;;;7.30;3.40;;;14.00;42.20;;;;;;5021976;28;20464;-60
2022/03/19 15:10:02;;;;;;;3.77;3.40;;;14.10;42.30;;;;;;5021194;28;20507;-62
2022/03/19 15:12:30;;;;;;;7.13;5.23;;;14.00;43.00;;;;;;5020928;28;20483;-61
2022/03/19 15:14:57;;;;;;;6.97;3.00;;;13.90;42.30;;;;;;5021022;28;20520;-60
2022/03/19 15:17:25;;;;;;;4.30;3.83;;;13.60;42.20;;;;;;5021065;28;20449;-61
2022/03/19 15:19:51;;;;;;;4.60;4.23;;;13.20;43.70;;;;;;5020028;28;20453;-61
2022/03/19 15:22:20;;;;;;;3.87;3.57;;;13.10;44.50;;;;;;5019876;28;20848;-60
2022/03/19 15:24:48;;;;;;;11.33;8.63;;;12.90;45.00;;;;;;5029148;28;20449;-60
2022/03/19 15:27:15;;;;;;;4.40;4.00;;;12.80;45.20;;;;;;5033107;28;20449;-61
2022/03/19 15:29:43;;;;;;;7.23;5.57;;;12.70;46.90;;;;;;5032625;28;20453;-61
2022/03/19 15:32:09;;;;;;;6.03;5.20;;;12.40;54.80;;;;;;5032597;28;20495;-61
2022/03/19 15:34:36;;;;;;;6.57;5.30;;;12.20;57.90;;;;;;5024403;28;20463;-60
2022/03/19 15:37:04;;;;;;;7.27;5.03;;;11.70;59.30;;;;;;5019060;28;20472;-61
2022/03/19 15:39:31;;;;;;;6.83;5.20;;;11.50;61.20;;;;;;5018594;28;20456;-60
2022/03/19 15:41:57;;;;;;;6.70;5.37;;;11.30;62.50;;;;;;5018232;28;20476;-61
2022/03/19 15:44:24;;;;;;;6.33;5.30;;;11.10;63.00;;;;;;5018611;28;20446;-61
2022/03/19 15:46:52;;;;;;;6.50;5.90;;;10.90;63.20;;;;;;5018307;28;20456;-60
2022/03/19 15:49:19;;;;;;;6.40;4.70;;;10.70;64.20;;;;;;5019118;28;20959;-61
2022/03/19 15:51:45;;;;;;;7.37;5.40;;;10.50;64.50;;;;;;5017397;28;20480;-60
2022/03/19 15:54:12;;;;;;;7.63;5.77;;;10.40;64.50;;;;;;5018381;28;21029;-61
2022/03/19 15:56:39;;;;;;;6.60;5.80;;;10.20;64.80;;;;;;5018072;28;20456;-60
2022/03/19 15:59:05;;;;;;;10.57;5.77;;;9.90;66.20;;;;;;5017753;28;20464;-60
2022/03/19 16:01:32;;;;;;;8.63;5.70;;;9.80;67.50;;;;;;5017508;28;20488;-61
2022/03/19 16:04:00;;;;;;;6.60;5.03;;;9.70;68.70;;;;;;5018672;28;20460;-61
2022/03/19 16:06:27;;;;;;;5.80;5.20;;;9.60;68.80;;;;;;5018314;28;20476;-62
2022/03/19 16:08:54;;;;;;;6.90;4.67;;;9.50;70.00;;;;;;5017036;28;20464;-60
2022/03/19 16:11:20;;;;;;;6.90;5.37;;;9.50;71.20;;;;;;5017710;28;20473;-62
2022/03/19 16:13:47;;;;;;;8.23;5.93;;;9.50;72.40;;;;;;5024460;28;20484;-60
2022/03/19 16:16:14;;;;;;;6.77;5.73;;;9.50;73.40;;;;;;5032674;28;20457;-60
2022/03/19 16:18:42;;;;;;;6.63;5.00;;;9.40;75.80;;;;;;5031257;28;20449;-61
2022/03/19 16:21:11;;;;;;;10.00;7.53;;;9.50;78.40;;;;;;5027685;28;20477;-63
2022/03/19 16:23:37;;;;;;;5.80;5.23;;;9.50;76.80;;;;;;5020222;28;20452;-60
2022/03/19 16:26:05;;;;;;;6.13;5.53;;;9.40;82.90;;;;;;5017784;28;20457;-60
2022/03/19 16:28:32;;;;;;;6.03;5.43;;;9.30;80.40;;;;;;5017769;28;20438;-60
2022/03/19 16:30:59;;;;;;;5.77;5.27;;;9.30;81.20;;;;;;5017649;28;20508;-60
2022/03/19 16:33:26;;;;;;;6.80;6.10;;;9.10;83.30;;;;;;5017359;28;20465;-60
2022/03/19 16:35:52;;;;;;;6.10;5.60;;;9.10;85.40;;;;;;5017276;28;20464;-60
2022/03/19 16:38:20;;;;;;;7.07;6.37;;;9.00;87.10;;;;;;5032318;28;20460;-61
2022/03/19 16:40:47;;;;;;;9.13;6.63;;;9.10;88.80;;;;;;5022494;28;20473;-60
2022/03/19 16:43:15;;;;;;;7.97;7.23;;;9.10;87.00;;;;;;5017009;28;20460;-61
2022/03/19 16:45:42;;;;;;;8.10;7.30;;;9.10;86.70;;;;;;5016984;28;20453;-62
2022/03/19 16:48:09;;;;;;;9.70;8.30;;;9.10;86.50;;;;;;5017083;28;20453;-61
2022/03/19 16:50:36;;;;;;;6.97;6.33;;;8.90;87.30;;;;;;5017136;28;20473;-60
2022/03/19 16:53:03;;;;;;;8.23;7.30;;;9.00;88.40;;;;;;5017429;28;20477;-60
2022/03/19 16:55:31;;;;;;;9.33;7.10;;;8.90;89.10;;;;;;5017515;28;20453;-61
2022/03/19 16:57:57;;;;;;;7.97;6.73;;;9.00;98.40;;;;;;5017049;28;20871;-60
2022/03/19 17:00:24;;;;;;;9.43;7.70;;;9.10;92.80;;;;;;5024480;28;20457;-61
2022/03/19 17:02:51;;;;;;;9.23;8.20;;;9.10;90.90;;;;;;5027320;28;20469;-61
2022/03/19 17:05:19;;;;;;;12.80;11.33;;;9.00;90.70;;;;;;5022220;28;20932;-61
2022/03/19 17:07:47;;;;;;;10.10;9.10;;;9.10;90.80;;;;;;5020401;28;20452;-61
2022/03/19 17:10:14;;;;;;;8.37;7.47;;;9.10;90.50;;;;;;5019757;28;20456;-61
2022/03/19 17:12:43;;;;;;;11.57;8.50;;;9.00;90.80;;;;;;5019470;28;20473;-62
2022/03/19 17:15:11;;;;;;;13.67;9.33;;;9.00;91.10;;;;;;5017582;28;20449;-61
2022/03/19 17:17:38;;;;;;;9.63;8.50;;;8.90;91.40;;;;;;5017890;28;20455;-61
2022/03/19 17:20:07;;;;;;;10.43;9.40;;;8.90;91.80;;;;;;5028956;28;20453;-61
2022/03/19 17:22:36;;;;;;;10.00;9.00;;;8.90;91.80;;;;;;5019366;28;20457;-61
2022/03/19 17:25:05;;;;;;;10.03;8.60;;;8.90;91.90;;;;;;5019453;28;20437;-61
2022/03/19 17:27:32;;;;;;;13.63;10.07;;;8.90;91.90;;;;;;5015963;28;20460;-60
2022/03/19 17:30:00;;;;;;;11.20;9.53;;;8.80;92.10;;;;;;5018368;28;20523;-61
2022/03/19 17:32:27;;;;;;;11.53;10.10;;;8.90;92.30;;;;;;5022135;28;20484;-63
2022/03/19 17:34:55;;;;;;;11.60;10.40;;;8.70;92.60;;;;;;5018465;28;20473;-63
2022/03/19 17:37:22;;;;;;;11.00;9.80;;;8.70;92.80;;;;;;5017098;28;20464;-61
2022/03/19 17:39:49;;;;;;;14.23;9.20;;;8.70;93.40;;;;;;5032592;28;20434;-62
2022/03/19 17:42:15;;;;;;;11.77;10.57;;;8.60;94.00;;;;;;5019575;28;20495;-62
2022/03/19 17:44:42;;;;;;;12.00;10.70;;;8.40;94.80;;;;;;5016751;28;20473;-61
2022/03/19 17:47:12;;;;;;;18.83;9.43;;;8.40;95.00;;;;;;5016152;28;20475;-60
2022/03/19 17:49:39;;;;;;;11.03;9.90;;;8.40;95.20;;;;;;5015739;28;20457;-62
2022/03/19 17:52:06;;;;;;;12.10;10.13;;;8.30;95.70;;;;;;5015588;28;20465;-60
2022/03/19 17:54:32;;;;;;;12.07;10.90;;;8.20;96.20;;;;;;5015530;28;20485;-62
2022/03/19 17:56:59;;;;;;;12.57;11.03;;;8.10;96.80;;;;;;5015611;28;20453;-62